createdAt,value
2022-10-11T00:01:47.079Z,8.15
2022-10-11T00:04:13.802Z,8.20
2022-10-11T00:06:43.310Z,7.38
2022-10-11T00:09:11.562Z,7.78
2022-10-11T00:11:38.980Z,8.10
2022-10-11T00:14:06.354Z,7.93
2022-10-11T00:16:33.017Z,7.90
2022-10-11T00:18:59.791Z,8.32
2022-10-11T00:21:26.949Z,8.93
2022-10-11T00:23:53.628Z,10.02
2022-10-11T00:26:20.277Z,9.10
2022-10-11T00:28:46.979Z,9.80
2022-10-11T00:31:16.255Z,9.88
2022-10-11T00:33:42.929Z,11.00
2022-10-11T00:36:10.459Z,10.32
2022-10-11T00:38:37.408Z,10.45
2022-10-11T00:41:04.140Z,12.50
2022-10-11T00:43:32.672Z,11.23
2022-10-11T00:45:59.302Z,10.52
2022-10-11T00:48:41.124Z,10.07
2022-10-11T00:51:26.119Z,11.05
2022-10-11T00:53:53.798Z,10.68
2022-10-11T00:56:24.875Z,11.15
2022-10-11T00:58:52.757Z,10.70
2022-10-11T01:01:19.696Z,9.65
2022-10-11T01:03:46.530Z,10.50
2022-10-11T01:06:13.159Z,10.05
2022-10-11T01:08:39.862Z,11.18
2022-10-11T01:11:06.881Z,11.13
2022-10-11T01:13:44.235Z,10.60
2022-10-11T01:16:23.038Z,9.00
2022-10-11T01:19:10.722Z,10.32
2022-10-11T01:21:47.369Z,8.90
2022-10-11T01:24:19.976Z,7.80
2022-10-11T01:26:58.556Z,7.75
2022-10-11T01:29:51.388Z,8.45
2022-10-11T01:32:41.577Z,7.63
2022-10-11T01:35:16.357Z,8.73
2022-10-11T01:38:00.406Z,8.88
2022-10-11T01:40:59.516Z,8.48
2022-10-11T01:43:27.931Z,8.88
2022-10-11T01:45:57.391Z,9.00
2022-10-11T01:48:24.530Z,8.68
2022-10-11T01:50:57.205Z,8.32
2022-10-11T01:54:02.098Z,7.80
2022-10-11T01:56:39.009Z,8.35
2022-10-11T01:59:35.398Z,9.15
2022-10-11T02:02:10.943Z,8.73
2022-10-11T02:04:45.292Z,8.57
2022-10-11T02:07:33.653Z,8.85
2022-10-11T02:10:27.192Z,8.85
2022-10-11T02:13:08.585Z,8.40
2022-10-11T02:15:39.380Z,10.15
2022-10-11T02:18:11.522Z,14.35
2022-10-11T02:20:41.431Z,22.77
2022-10-11T02:23:15.466Z,17.05
2022-10-11T02:25:43.474Z,15.15
2022-10-11T02:28:18.640Z,11.90
2022-10-11T02:30:47.700Z,11.10
2022-10-11T02:33:18.588Z,10.63
2022-10-11T02:35:49.380Z,10.38
2022-10-11T02:38:27.552Z,11.98
2022-10-11T02:41:00.753Z,10.30
2022-10-11T02:43:41.585Z,10.75
2022-10-11T02:46:10.194Z,10.82
2022-10-11T02:48:37.576Z,10.23
2022-10-11T02:51:04.872Z,10.85
2022-10-11T02:53:32.866Z,10.65
2022-10-11T02:55:59.524Z,11.13
2022-10-11T02:58:26.245Z,10.18
2022-10-11T03:00:53.034Z,10.18
2022-10-11T03:03:19.771Z,10.35
2022-10-11T03:05:46.493Z,9.90
2022-10-11T03:08:15.009Z,10.38
2022-10-11T03:10:41.947Z,9.80
2022-10-11T03:13:08.805Z,9.75
2022-10-11T03:15:35.466Z,12.15
2022-10-11T03:18:02.278Z,11.07
2022-10-11T03:20:28.932Z,10.45
2022-10-11T03:22:55.805Z,10.80
2022-10-11T03:25:22.448Z,12.40
2022-10-11T03:27:49.144Z,10.52
2022-10-11T03:30:18.314Z,10.75
2022-10-11T03:32:46.002Z,9.75
2022-10-11T03:35:12.698Z,10.48
2022-10-11T03:37:39.430Z,9.52
2022-10-11T03:40:08.212Z,9.18
2022-10-11T03:42:35.372Z,10.38
2022-10-11T03:45:04.931Z,9.70
2022-10-11T03:47:32.052Z,9.57
2022-10-11T03:49:58.775Z,9.63
2022-10-11T03:52:25.570Z,10.07
2022-10-11T03:54:52.605Z,8.60
2022-10-11T03:57:19.651Z,8.55
2022-10-11T03:59:46.394Z,8.07
2022-10-11T04:02:13.078Z,7.43
2022-10-11T04:04:39.858Z,7.15
2022-10-11T04:07:06.702Z,7.20
2022-10-11T04:09:33.678Z,8.15
2022-10-11T04:12:00.822Z,7.50
2022-10-11T04:14:27.563Z,8.43
2022-10-11T04:16:57.319Z,7.90
2022-10-11T04:19:27.431Z,9.30
2022-10-11T04:21:54.100Z,8.20
2022-10-11T04:24:21.002Z,8.75
2022-10-11T04:26:48.478Z,7.90
2022-10-11T04:29:15.420Z,7.22
2022-10-11T04:31:42.163Z,7.97
2022-10-11T04:34:08.823Z,7.28
2022-10-11T04:36:35.622Z,7.68
2022-10-11T04:39:03.653Z,7.30
2022-10-11T04:41:30.408Z,7.90
2022-10-11T04:43:57.196Z,8.30
2022-10-11T04:46:24.592Z,9.63
2022-10-11T04:48:51.732Z,9.50
2022-10-11T04:51:18.804Z,8.40
2022-10-11T04:53:45.524Z,8.48
2022-10-11T04:56:12.591Z,8.18
2022-10-11T04:58:42.988Z,7.53
2022-10-11T05:01:10.581Z,7.88
2022-10-11T05:03:37.832Z,7.80
2022-10-11T05:06:06.076Z,7.50
2022-10-11T05:08:33.590Z,8.35
2022-10-11T05:11:03.958Z,7.78
2022-10-11T05:13:31.824Z,8.20
2022-10-11T05:15:58.613Z,8.07
2022-10-11T05:18:25.426Z,8.35
2022-10-11T05:21:19.942Z,7.43
2022-10-11T05:23:48.524Z,8.00
2022-10-11T05:26:16.567Z,8.05
2022-10-11T05:28:43.581Z,9.38
2022-10-11T05:31:11.157Z,8.52
2022-10-11T05:33:38.289Z,8.27
2022-10-11T05:36:06.512Z,9.30
2022-10-11T05:38:33.557Z,8.02
2022-10-11T05:41:04.198Z,14.63
2022-10-11T05:43:31.382Z,11.77
2022-10-11T05:45:58.353Z,10.82
2022-10-11T05:48:26.588Z,11.07
2022-10-11T05:50:58.103Z,13.10
2022-10-11T05:53:24.796Z,13.23
2022-10-11T05:55:51.515Z,11.25
2022-10-11T05:58:18.661Z,8.07
2022-10-11T06:00:45.450Z,8.70
2022-10-11T06:03:13.856Z,7.50
2022-10-11T06:05:40.574Z,8.15
2022-10-11T06:08:08.656Z,9.52
2022-10-11T06:10:36.997Z,8.18
2022-10-11T06:13:03.946Z,9.73
2022-10-11T06:15:30.707Z,20.70
2022-10-11T06:17:59.135Z,11.52
2022-10-11T06:20:26.857Z,9.85
2022-10-11T06:22:53.690Z,9.45
2022-10-11T06:25:20.374Z,9.40
2022-10-11T06:27:47.038Z,9.85
2022-10-11T06:30:14.307Z,9.55
2022-10-11T06:32:40.937Z,9.70
2022-10-11T06:35:08.113Z,10.57
2022-10-11T06:37:34.825Z,10.38
2022-10-11T06:40:02.061Z,10.15
2022-10-11T06:42:28.742Z,9.43
2022-10-11T06:44:55.358Z,9.48
2022-10-11T06:47:22.024Z,10.68
2022-10-11T06:49:48.713Z,9.90
2022-10-11T06:52:15.513Z,9.48
2022-10-11T06:54:44.934Z,9.73
2022-10-11T06:57:12.152Z,9.70
2022-10-11T06:59:38.863Z,12.00
2022-10-11T07:02:05.672Z,12.10
2022-10-11T07:04:34.174Z,10.85
2022-10-11T07:07:00.953Z,11.23
2022-10-11T07:09:27.797Z,9.40
2022-10-11T07:11:54.665Z,10.02
2022-10-11T07:14:21.371Z,8.52
2022-10-11T07:16:48.263Z,9.02
2022-10-11T07:19:14.992Z,8.63
2022-10-11T07:21:41.761Z,8.70
2022-10-11T07:24:08.656Z,9.23
2022-10-11T07:26:38.513Z,7.38
2022-10-11T07:29:09.135Z,9.30
2022-10-11T07:31:38.096Z,9.38
2022-10-11T07:34:05.089Z,7.43
2022-10-11T07:36:31.891Z,7.85
2022-10-11T07:38:58.618Z,8.43
2022-10-11T07:41:25.274Z,7.75
2022-10-11T07:43:52.325Z,8.07
2022-10-11T07:46:19.007Z,9.10
2022-10-11T07:48:45.888Z,8.02
2022-10-11T07:51:14.269Z,8.60
2022-10-11T07:53:42.196Z,8.00
2022-10-11T07:56:12.310Z,7.78
2022-10-11T07:58:40.276Z,8.68
2022-10-11T08:01:08.222Z,7.57
2022-10-11T08:03:35.297Z,13.05
2022-10-11T08:06:05.306Z,11.77
2022-10-11T08:08:32.629Z,9.93
2022-10-11T08:10:59.670Z,10.77
2022-10-11T08:13:26.982Z,8.40
2022-10-11T08:15:54.238Z,8.15
2022-10-11T08:18:21.067Z,8.50
2022-10-11T08:20:48.354Z,8.20
2022-10-11T08:23:16.736Z,8.13
2022-10-11T08:25:45.767Z,8.30
2022-10-11T08:28:20.720Z,7.75
2022-10-11T08:30:52.305Z,7.63
2022-10-11T08:33:20.356Z,7.60
2022-10-11T08:35:47.800Z,7.82
2022-10-11T08:38:15.266Z,8.18
2022-10-11T08:40:54.965Z,6.90
2022-10-11T08:43:24.326Z,8.85
2022-10-11T08:45:56.106Z,8.25
2022-10-11T08:48:45.725Z,8.10
2022-10-11T08:51:20.787Z,8.98
2022-10-11T08:54:03.453Z,7.75
2022-10-11T08:56:37.269Z,8.40
2022-10-11T08:59:12.862Z,8.50
2022-10-11T09:01:46.486Z,8.43
2022-10-11T09:04:15.126Z,7.75
2022-10-11T09:07:00.173Z,8.60
2022-10-11T09:10:01.202Z,8.75
2022-10-11T09:12:40.683Z,8.32
2022-10-11T09:15:26.535Z,7.85
2022-10-11T09:18:17.376Z,8.38
2022-10-11T09:21:02.639Z,8.82
2022-10-11T09:24:13.240Z,8.55
2022-10-11T09:26:55.518Z,7.97
2022-10-11T09:29:24.998Z,8.85
2022-10-11T09:31:54.735Z,8.30
2022-10-11T09:34:25.582Z,8.30
2022-10-11T09:37:20.693Z,8.00
2022-10-11T09:39:59.364Z,8.60
2022-10-11T09:42:26.125Z,8.02
2022-10-11T09:44:52.982Z,8.30
2022-10-11T09:47:24.009Z,9.27
2022-10-11T09:49:56.735Z,7.18
2022-10-11T09:52:24.259Z,8.13
2022-10-11T09:54:55.098Z,7.40
2022-10-11T09:57:27.769Z,7.68
2022-10-11T10:00:08.559Z,7.18
2022-10-11T10:02:48.865Z,7.78
2022-10-11T10:05:26.375Z,7.78
2022-10-11T10:08:11.255Z,7.20
2022-10-11T10:10:41.522Z,7.20
2022-10-11T10:13:26.697Z,7.18
2022-10-11T10:15:57.849Z,6.47
2022-10-11T10:18:34.118Z,6.05
2022-10-11T10:21:02.110Z,6.05
2022-10-11T10:23:31.853Z,6.13
2022-10-11T10:26:20.385Z,6.10
2022-10-11T10:29:16.680Z,5.40
2022-10-11T10:32:12.713Z,5.78
2022-10-11T10:34:38.620Z,5.63
2022-10-11T10:37:25.318Z,5.95
2022-10-11T10:40:08.519Z,5.30
2022-10-11T10:42:35.689Z,6.05
2022-10-11T10:45:08.489Z,5.65
2022-10-11T10:47:57.444Z,5.45
2022-10-11T10:50:31.371Z,5.57
2022-10-11T10:53:00.970Z,5.68
2022-10-11T10:56:06.544Z,4.97
2022-10-11T10:58:41.847Z,4.60
2022-10-11T11:01:20.826Z,5.57
2022-10-11T11:03:57.673Z,4.55
2022-10-11T11:06:47.243Z,4.68
2022-10-11T11:09:32.050Z,4.43
2022-10-11T11:12:26.725Z,5.00
2022-10-11T11:15:05.424Z,4.80
2022-10-11T11:17:55.139Z,4.57
2022-10-11T11:20:39.053Z,5.15
2022-10-11T11:23:08.997Z,4.53
2022-10-11T11:26:03.799Z,4.80
2022-10-11T11:28:54.914Z,5.28
2022-10-11T11:31:27.708Z,5.20
2022-10-11T11:33:54.659Z,5.25
2022-10-11T11:36:44.152Z,4.40
2022-10-11T11:39:43.946Z,5.25
2022-10-11T11:42:20.185Z,4.85
2022-10-11T11:44:51.411Z,4.78
2022-10-11T11:47:35.412Z,4.18
2022-10-11T11:50:22.244Z,4.00
2022-10-11T11:52:56.608Z,3.90
2022-10-11T11:55:28.556Z,4.20
2022-10-11T11:58:23.127Z,4.15
2022-10-11T12:01:03.914Z,4.20
2022-10-11T12:03:41.404Z,4.43
2022-10-11T12:06:20.034Z,4.28
2022-10-11T12:08:55.436Z,3.95
2022-10-11T12:11:33.036Z,4.20
2022-10-11T12:14:17.104Z,3.50
2022-10-11T12:17:16.168Z,3.67
2022-10-11T12:20:15.326Z,3.72
2022-10-11T12:23:43.964Z,3.55
2022-10-11T12:26:16.416Z,3.30
2022-10-11T12:28:43.491Z,3.47
2022-10-11T12:31:26.378Z,4.15
2022-10-11T12:34:14.612Z,4.05
2022-10-11T12:36:46.690Z,3.63
2022-10-11T12:39:20.260Z,3.92
2022-10-11T12:41:50.158Z,4.03
2022-10-11T12:44:22.746Z,3.33
2022-10-11T12:46:55.572Z,3.95
2022-10-11T12:49:41.505Z,4.13
2022-10-11T12:52:17.659Z,3.72
2022-10-11T12:55:02.383Z,3.28
2022-10-11T12:57:50.243Z,3.85
2022-10-11T13:00:29.663Z,3.50
2022-10-11T13:03:31.819Z,3.70
2022-10-11T13:06:04.762Z,3.80
2022-10-11T13:08:37.431Z,3.78
2022-10-11T13:11:16.887Z,3.20
2022-10-11T13:13:58.884Z,2.95
2022-10-11T13:16:28.886Z,2.67
2022-10-11T13:18:59.630Z,2.85
2022-10-11T13:21:36.515Z,2.63
2022-10-11T13:24:24.451Z,2.67
2022-10-11T13:26:54.489Z,4.22
2022-10-11T13:29:43.503Z,6.82
2022-10-11T13:32:21.983Z,3.33
2022-10-11T13:37:29.968Z,3.78
2022-10-11T13:39:57.859Z,3.40
2022-10-11T13:42:33.834Z,2.97
2022-10-11T13:45:01.188Z,2.83
2022-10-11T13:47:30.403Z,3.13
2022-10-11T13:50:10.832Z,3.42
2022-10-11T13:53:17.916Z,3.00
2022-10-11T13:55:56.197Z,3.00
2022-10-11T13:58:28.086Z,2.95
2022-10-11T14:01:26.939Z,3.35
2022-10-11T14:04:01.259Z,3.95
2022-10-11T14:06:56.379Z,2.70
2022-10-11T14:09:36.593Z,3.47
2022-10-11T14:12:26.176Z,3.13
2022-10-11T14:14:52.971Z,2.50
2022-10-11T14:17:23.223Z,2.63
2022-10-11T14:20:30.864Z,3.15
2022-10-11T14:23:00.140Z,2.92
2022-10-11T14:25:26.983Z,2.90
2022-10-11T14:27:54.603Z,3.25
2022-10-11T14:30:26.458Z,2.70
2022-10-11T14:32:56.605Z,3.40
2022-10-11T14:35:32.405Z,3.40
2022-10-11T14:37:59.925Z,3.80
2022-10-11T14:40:30.358Z,3.75
2022-10-11T14:42:57.345Z,3.63
2022-10-11T14:45:24.370Z,3.58
2022-10-11T14:47:51.849Z,3.22
2022-10-11T14:50:30.033Z,3.22
2022-10-11T14:52:57.213Z,3.03
2022-10-11T14:55:24.493Z,2.88
2022-10-11T14:57:51.216Z,3.13
2022-10-11T15:00:24.512Z,3.80
2022-10-11T15:02:52.855Z,3.20
2022-10-11T15:05:20.855Z,3.85
2022-10-11T15:07:48.418Z,2.97
2022-10-11T15:10:43.705Z,3.72
2022-10-11T15:13:10.502Z,4.13
2022-10-11T15:15:40.916Z,3.50
2022-10-11T15:18:11.049Z,3.60
2022-10-11T15:20:43.363Z,3.15
2022-10-11T15:23:11.335Z,3.15
2022-10-11T15:25:39.884Z,3.22
2022-10-11T15:28:07.680Z,3.28
2022-10-11T15:30:41.458Z,3.55
2022-10-11T15:33:09.115Z,3.20
2022-10-11T15:35:36.031Z,4.07
2022-10-11T15:38:02.923Z,3.30
2022-10-11T15:40:35.691Z,3.17
2022-10-11T15:43:03.476Z,3.13
2022-10-11T15:45:30.994Z,3.22
2022-10-11T15:47:58.413Z,3.15
2022-10-11T15:50:34.937Z,3.33
2022-10-11T15:53:21.258Z,3.00
2022-10-11T15:55:50.849Z,3.58
2022-10-11T15:58:19.385Z,2.97
2022-10-11T16:00:48.145Z,3.13
2022-10-11T16:03:17.114Z,2.97
2022-10-11T16:05:44.159Z,3.13
2022-10-11T16:08:11.484Z,3.05
2022-10-11T16:10:39.076Z,3.40
2022-10-11T16:13:06.169Z,3.60
2022-10-11T16:15:34.318Z,4.07
2022-10-11T16:18:01.158Z,3.35
2022-10-11T16:20:27.917Z,3.63
2022-10-11T16:22:55.378Z,4.30
2022-10-11T16:25:23.222Z,4.40
2022-10-11T16:27:50.630Z,3.90
2022-10-11T16:30:18.818Z,3.72
2022-10-11T16:32:45.577Z,3.78
2022-10-11T16:35:14.331Z,3.78
2022-10-11T16:37:41.353Z,4.10
2022-10-11T16:40:10.143Z,4.28
2022-10-11T16:42:39.096Z,3.90
2022-10-11T16:45:06.783Z,3.65
2022-10-11T16:47:33.978Z,4.18
2022-10-11T16:50:00.781Z,5.07
2022-10-11T16:52:27.773Z,5.13
2022-10-11T16:54:54.564Z,4.30
2022-10-11T16:57:21.337Z,4.40
2022-10-11T16:59:48.026Z,5.65
2022-10-11T17:02:18.350Z,5.80
2022-10-11T17:04:45.991Z,5.45
2022-10-11T17:07:13.605Z,6.68
2022-10-11T17:09:44.209Z,5.43
2022-10-11T17:12:13.882Z,5.45
2022-10-11T17:14:41.431Z,4.50
2022-10-11T17:17:09.752Z,4.60
2022-10-11T17:19:45.289Z,4.18
2022-10-11T17:22:15.509Z,4.38
2022-10-11T17:24:42.479Z,4.45
2022-10-11T17:27:09.236Z,5.28
2022-10-11T17:29:36.247Z,4.72
2022-10-11T17:32:03.104Z,4.15
2022-10-11T17:34:29.811Z,4.32
2022-10-11T17:36:56.610Z,5.03
2022-10-11T17:39:24.278Z,4.15
2022-10-11T17:41:51.376Z,4.30
2022-10-11T17:44:18.823Z,4.68
2022-10-11T17:46:46.630Z,4.40
2022-10-11T17:49:13.935Z,4.80
2022-10-11T17:51:41.384Z,4.05
2022-10-11T17:54:12.923Z,4.85
2022-10-11T17:56:41.617Z,5.20
2022-10-11T17:59:15.932Z,9.32
2022-10-11T18:01:43.094Z,8.18
2022-10-11T18:04:16.436Z,9.10
2022-10-11T18:06:45.536Z,7.72
2022-10-11T18:09:14.073Z,6.50
2022-10-11T18:11:41.068Z,8.20
2022-10-11T18:14:08.059Z,7.60
2022-10-11T18:16:36.169Z,11.35
2022-10-11T18:19:08.888Z,10.85
2022-10-11T18:21:37.672Z,6.88
2022-10-11T18:24:22.434Z,8.43
2022-10-11T18:26:49.145Z,6.22
2022-10-11T18:29:16.151Z,10.75
2022-10-11T18:31:42.917Z,7.25
2022-10-11T18:34:12.875Z,6.82
2022-10-11T18:36:40.049Z,6.45
2022-10-11T18:39:11.247Z,5.75
2022-10-11T18:41:39.214Z,5.50
2022-10-11T18:44:08.512Z,6.30
2022-10-11T18:46:35.900Z,7.05
2022-10-11T18:49:03.614Z,7.20
2022-10-11T18:51:33.157Z,6.65
2022-10-11T18:54:00.565Z,7.18
2022-10-11T18:56:29.039Z,7.90
2022-10-11T18:58:57.409Z,10.27
2022-10-11T19:01:27.336Z,10.98
2022-10-11T19:03:56.778Z,12.10
2022-10-11T19:06:26.519Z,11.40
2022-10-11T19:09:05.104Z,10.38
2022-10-11T19:11:32.188Z,9.88
2022-10-11T19:14:01.583Z,13.40
2022-10-11T19:16:29.902Z,25.55
2022-10-11T19:18:57.326Z,12.60
2022-10-11T19:21:24.446Z,10.85
2022-10-11T19:23:52.359Z,11.95
2022-10-11T19:26:33.378Z,10.25
2022-10-11T19:29:06.991Z,9.00
2022-10-11T19:31:35.946Z,9.30
2022-10-11T19:34:03.048Z,9.85
2022-10-11T19:36:35.499Z,9.18
2022-10-11T19:39:04.600Z,7.53
2022-10-11T19:41:31.761Z,8.10
2022-10-11T19:43:59.207Z,8.82
2022-10-11T19:49:17.377Z,9.63
2022-10-11T19:51:44.179Z,8.90
2022-10-11T19:54:12.920Z,9.27
2022-10-11T19:56:39.758Z,9.63
2022-10-11T19:59:06.767Z,10.27
2022-10-11T20:01:35.286Z,9.02
2022-10-11T20:04:04.589Z,10.50
2022-10-11T20:06:37.883Z,11.38
2022-10-11T20:09:29.624Z,11.52
2022-10-11T20:11:56.542Z,13.45
2022-10-11T20:14:23.336Z,8.98
2022-10-11T20:16:50.917Z,14.00
2022-10-11T20:19:18.633Z,10.20
2022-10-11T20:21:45.481Z,9.57
2022-10-11T20:24:12.404Z,8.20
2022-10-11T20:26:39.615Z,8.10
2022-10-11T20:29:07.163Z,8.40
2022-10-11T20:31:40.661Z,8.27
2022-10-11T20:34:07.730Z,9.02
2022-10-11T20:36:36.111Z,7.22
2022-10-11T20:39:05.001Z,9.02
2022-10-11T20:41:34.302Z,8.38
2022-10-11T20:44:02.397Z,7.22
2022-10-11T20:46:32.322Z,7.53
2022-10-11T20:49:04.749Z,7.60
2022-10-11T20:51:33.633Z,7.20
2022-10-11T20:54:02.221Z,7.00
2022-10-11T20:56:30.002Z,6.97
2022-10-11T20:58:58.090Z,6.88
2022-10-11T21:01:31.193Z,6.47
2022-10-11T21:03:59.765Z,7.63
2022-10-11T21:06:27.236Z,6.72
2022-10-11T21:08:58.756Z,6.78
2022-10-11T21:11:26.979Z,6.65
2022-10-11T21:13:55.572Z,6.97
2022-10-11T21:16:22.494Z,6.28
2022-10-11T21:18:54.965Z,6.20
2022-10-11T21:21:23.779Z,5.70
2022-10-11T21:23:58.213Z,6.40
2022-10-11T21:26:25.979Z,6.80
2022-10-11T21:28:53.186Z,6.80
2022-10-11T21:31:21.299Z,7.10
2022-10-11T21:33:48.047Z,6.65
2022-10-11T21:36:18.489Z,6.68
2022-10-11T21:38:45.417Z,6.55
2022-10-11T21:41:17.664Z,7.15
2022-10-11T21:43:44.740Z,65.80
2022-10-11T21:46:19.125Z,55.92
2022-10-11T21:48:46.680Z,18.13
2022-10-11T21:51:21.609Z,14.02
2022-10-11T21:53:48.256Z,18.20
2022-10-11T21:56:15.317Z,11.40
2022-10-11T21:58:42.229Z,10.20
2022-10-11T22:01:10.748Z,7.15
2022-10-11T22:03:37.562Z,7.50
2022-10-11T22:06:05.051Z,6.15
2022-10-11T22:08:32.275Z,6.93
2022-10-11T22:11:00.470Z,5.93
2022-10-11T22:13:28.601Z,6.40
2022-10-11T22:15:58.964Z,6.22
2022-10-11T22:18:25.702Z,5.53
2022-10-11T22:20:52.480Z,4.82
2022-10-11T22:23:19.257Z,5.03
2022-10-11T22:25:46.504Z,4.80
2022-10-11T22:28:13.247Z,4.97
2022-10-11T22:30:40.266Z,4.30
2022-10-11T22:33:06.969Z,4.55
2022-10-11T22:35:37.504Z,5.00
2022-10-11T22:38:06.122Z,4.72
2022-10-11T22:40:32.832Z,4.75
2022-10-11T22:42:59.774Z,4.40
2022-10-11T22:45:26.389Z,4.13
2022-10-11T22:47:53.021Z,4.40
2022-10-11T22:50:19.709Z,3.78
2022-10-11T22:52:46.360Z,5.00
2022-10-11T22:55:18.994Z,5.50
2022-10-11T22:57:46.696Z,5.40
2022-10-11T23:00:13.668Z,5.20
2022-10-11T23:02:40.309Z,4.50
2022-10-11T23:05:07.278Z,4.40
2022-10-11T23:07:34.099Z,4.38
2022-10-11T23:10:00.917Z,4.55
2022-10-11T23:12:27.556Z,4.47
2022-10-11T23:14:54.250Z,4.50
2022-10-11T23:17:20.933Z,5.75
2022-10-11T23:19:47.738Z,5.50
2022-10-11T23:22:14.629Z,5.20
2022-10-11T23:24:41.500Z,4.72
2022-10-11T23:27:08.254Z,3.90
2022-10-11T23:29:34.909Z,4.03
2022-10-11T23:32:01.596Z,3.88
2022-10-11T23:34:28.270Z,4.15
2022-10-11T23:36:54.964Z,4.68
2022-10-11T23:39:21.598Z,3.75
2022-10-11T23:41:48.418Z,3.50
2022-10-11T23:44:15.062Z,3.53
2022-10-11T23:46:41.724Z,4.00
2022-10-11T23:49:08.353Z,4.03
2022-10-11T23:51:35.042Z,4.78
2022-10-11T23:54:01.790Z,3.55
2022-10-11T23:56:28.456Z,3.45
2022-10-11T23:58:55.113Z,3.80
